sensor_id;sensor_type;location;lat;lon;timestamp;P1;durP1;ratioP1;P2;durP2;ratioP2
56477;SDS011;42382;53.210;5.772;2023-04-03T07:52:05;5.97;;;1.13;;
56477;SDS011;42382;53.210;5.772;2023-04-03T07:54:32;5.65;;;0.80;;
56477;SDS011;42382;53.210;5.772;2023-04-03T07:56:58;3.25;;;1.10;;
56477;SDS011;42382;53.210;5.772;2023-04-03T07:59:27;5.25;;;0.93;;
56477;SDS011;42382;53.210;5.772;2023-04-03T08:01:52;8.43;;;1.35;;
56477;SDS011;42382;53.210;5.772;2023-04-03T08:04:18;4.60;;;0.90;;
56477;SDS011;42382;53.210;5.772;2023-04-03T08:06:43;5.30;;;0.98;;
56477;SDS011;42382;53.210;5.772;2023-04-03T08:09:09;8.48;;;1.20;;
56477;SDS011;42382;53.210;5.772;2023-04-03T08:11:35;4.15;;;1.13;;
56477;SDS011;42382;53.210;5.772;2023-04-03T08:14:01;5.60;;;0.82;;
56477;SDS011;42382;53.210;5.772;2023-04-03T08:16:27;4.20;;;0.82;;
56477;SDS011;42382;53.210;5.772;2023-04-03T08:18:53;6.18;;;0.95;;
56477;SDS011;42382;53.210;5.772;2023-04-03T08:21:19;5.82;;;1.38;;
56477;SDS011;42382;53.210;5.772;2023-04-03T08:23:47;4.20;;;0.98;;
56477;SDS011;42382;53.210;5.772;2023-04-03T08:26:16;4.20;;;0.95;;
56477;SDS011;42382;53.210;5.772;2023-04-03T08:28:43;3.28;;;0.77;;
56477;SDS011;42382;53.210;5.772;2023-04-03T08:31:10;2.85;;;0.77;;
56477;SDS011;42382;53.210;5.772;2023-04-03T08:33:39;1.67;;;0.50;;
56477;SDS011;42382;53.210;5.772;2023-04-03T08:36:05;3.45;;;0.52;;
56477;SDS011;42382;53.210;5.772;2023-04-03T08:38:32;2.03;;;0.45;;
56477;SDS011;42382;53.210;5.772;2023-04-03T08:41:11;1.90;;;0.47;;
56477;SDS011;42382;53.210;5.772;2023-04-03T08:43:49;1.90;;;0.40;;
56477;SDS011;42382;53.210;5.772;2023-04-03T08:46:18;7.68;;;0.90;;
56477;SDS011;42382;53.210;5.772;2023-04-03T08:48:45;3.30;;;0.52;;
56477;SDS011;42382;53.210;5.772;2023-04-03T08:51:15;3.90;;;0.70;;
56477;SDS011;42382;53.210;5.772;2023-04-03T08:53:44;2.90;;;0.50;;
56477;SDS011;42382;53.210;5.772;2023-04-03T08:56:11;3.70;;;0.40;;
56477;SDS011;42382;53.210;5.772;2023-04-03T08:58:57;1.45;;;0.35;;
56477;SDS011;42382;53.210;5.772;2023-04-03T09:01:28;2.85;;;0.75;;
56477;SDS011;42382;53.210;5.772;2023-04-03T09:03:56;1.85;;;0.45;;
56477;SDS011;42382;53.210;5.772;2023-04-03T09:06:23;2.15;;;0.57;;
56477;SDS011;42382;53.210;5.772;2023-04-03T09:08:53;1.00;;;0.20;;
56477;SDS011;42382;53.210;5.772;2023-04-03T09:16:39;1.98;;;0.40;;
56477;SDS011;42382;53.210;5.772;2023-04-03T09:20:11;2.75;;;0.30;;
56477;SDS011;42382;53.210;5.772;2023-04-03T09:24:39;2.05;;;0.30;;
56477;SDS011;42382;53.210;5.772;2023-04-03T09:27:06;2.83;;;0.30;;
56477;SDS011;42382;53.210;5.772;2023-04-03T09:29:35;1.38;;;0.28;;
56477;SDS011;42382;53.210;5.772;2023-04-03T09:32:11;1.17;;;0.30;;
56477;SDS011;42382;53.210;5.772;2023-04-03T09:34:41;1.95;;;0.40;;
56477;SDS011;42382;53.210;5.772;2023-04-03T09:37:08;1.75;;;0.40;;
56477;SDS011;42382;53.210;5.772;2023-04-03T09:39:52;1.45;;;0.28;;
56477;SDS011;42382;53.210;5.772;2023-04-03T09:42:20;1.35;;;0.20;;
56477;SDS011;42382;53.210;5.772;2023-04-03T09:44:55;0.60;;;0.10;;
56477;SDS011;42382;53.210;5.772;2023-04-03T09:47:33;2.78;;;0.20;;
56477;SDS011;42382;53.210;5.772;2023-04-03T09:52:41;1.88;;;0.50;;
56477;SDS011;42382;53.210;5.772;2023-04-03T09:55:17;1.10;;;0.28;;
56477;SDS011;42382;53.210;5.772;2023-04-03T09:57:52;0.85;;;0.25;;
56477;SDS011;42382;53.210;5.772;2023-04-03T10:00:20;1.73;;;0.30;;
56477;SDS011;42382;53.210;5.772;2023-04-03T10:02:51;0.80;;;0.10;;
56477;SDS011;42382;53.210;5.772;2023-04-03T10:08:08;0.50;;;0.10;;
56477;SDS011;42382;53.210;5.772;2023-04-03T10:10:47;3.75;;;0.80;;
56477;SDS011;42382;53.210;5.772;2023-04-03T10:13:15;0.93;;;0.20;;
56477;SDS011;42382;53.210;5.772;2023-04-03T10:15:48;1.73;;;0.10;;
56477;SDS011;42382;53.210;5.772;2023-04-03T10:18:26;0.30;;;0.10;;
56477;SDS011;42382;53.210;5.772;2023-04-03T10:21:08;1.38;;;0.20;;
56477;SDS011;42382;53.210;5.772;2023-04-03T10:24:08;1.75;;;0.30;;
56477;SDS011;42382;53.210;5.772;2023-04-03T10:32:35;1.05;;;0.20;;
56477;SDS011;42382;53.210;5.772;2023-04-03T10:40:44;0.68;;;0.10;;
56477;SDS011;42382;53.210;5.772;2023-04-03T10:57:14;1.63;;;0.17;;
56477;SDS011;42382;53.210;5.772;2023-04-03T10:59:44;1.23;;;0.30;;
56477;SDS011;42382;53.210;5.772;2023-04-03T11:02:23;0.95;;;0.10;;
56477;SDS011;42382;53.210;5.772;2023-04-03T11:04:53;1.38;;;0.13;;
56477;SDS011;42382;53.210;5.772;2023-04-03T11:07:26;0.80;;;0.10;;
56477;SDS011;42382;53.210;5.772;2023-04-03T11:10:10;0.75;;;0.10;;
56477;SDS011;42382;53.210;5.772;2023-04-03T11:12:46;3.78;;;0.20;;
56477;SDS011;42382;53.210;5.772;2023-04-03T11:15:17;1.20;;;0.20;;
56477;SDS011;42382;53.210;5.772;2023-04-03T11:18:03;1.80;;;0.13;;
56477;SDS011;42382;53.210;5.772;2023-04-03T11:20:42;1.73;;;0.37;;
56477;SDS011;42382;53.210;5.772;2023-04-03T11:23:19;0.52;;;0.10;;
56477;SDS011;42382;53.210;5.772;2023-04-03T11:25:49;1.45;;;0.40;;
56477;SDS011;42382;53.210;5.772;2023-04-03T11:28:18;0.40;;;0.10;;
56477;SDS011;42382;53.210;5.772;2023-04-03T11:36:27;2.47;;;0.20;;
56477;SDS011;42382;53.210;5.772;2023-04-03T11:38:56;1.48;;;0.30;;
56477;SDS011;42382;53.210;5.772;2023-04-03T11:41:30;1.55;;;0.30;;
56477;SDS011;42382;53.210;5.772;2023-04-03T11:46:22;1.23;;;0.10;;
56477;SDS011;42382;53.210;5.772;2023-04-03T11:49:49;1.25;;;0.10;;
56477;SDS011;42382;53.210;5.772;2023-04-03T11:59:27;3.50;;;0.20;;
56477;SDS011;42382;53.210;5.772;2023-04-03T12:14:35;1.27;;;0.30;;
56477;SDS011;42382;53.210;5.772;2023-04-03T12:17:01;1.88;;;0.20;;
56477;SDS011;42382;53.210;5.772;2023-04-03T12:19:34;0.93;;;0.15;;
56477;SDS011;42382;53.210;5.772;2023-04-03T12:44:07;2.30;;;0.20;;
56477;SDS011;42382;53.210;5.772;2023-04-03T12:46:52;3.67;;;0.43;;
56477;SDS011;42382;53.210;5.772;2023-04-03T12:49:35;0.90;;;0.25;;
56477;SDS011;42382;53.210;5.772;2023-04-03T12:52:05;1.27;;;0.17;;
56477;SDS011;42382;53.210;5.772;2023-04-03T12:54:42;1.20;;;0.10;;
56477;SDS011;42382;53.210;5.772;2023-04-03T12:59:57;1.50;;;0.20;;
56477;SDS011;42382;53.210;5.772;2023-04-03T13:02:28;1.37;;;0.20;;
56477;SDS011;42382;53.210;5.772;2023-04-03T13:04:59;1.55;;;0.30;;
56477;SDS011;42382;53.210;5.772;2023-04-03T13:07:32;6.18;;;0.50;;
56477;SDS011;42382;53.210;5.772;2023-04-03T13:12:56;5.13;;;0.60;;
56477;SDS011;42382;53.210;5.772;2023-04-03T13:17:50;2.83;;;0.52;;
56477;SDS011;42382;53.210;5.772;2023-04-03T13:20:19;1.23;;;0.20;;
56477;SDS011;42382;53.210;5.772;2023-04-03T13:22:59;2.22;;;0.30;;
56477;SDS011;42382;53.210;5.772;2023-04-03T13:25:28;3.22;;;0.40;;
56477;SDS011;42382;53.210;5.772;2023-04-03T13:27:56;2.10;;;0.30;;
56477;SDS011;42382;53.210;5.772;2023-04-03T13:32:54;3.83;;;0.55;;
56477;SDS011;42382;53.210;5.772;2023-04-03T13:35:40;1.75;;;0.40;;
56477;SDS011;42382;53.210;5.772;2023-04-03T13:38:21;0.98;;;0.20;;
56477;SDS011;42382;53.210;5.772;2023-04-03T13:43:30;1.13;;;0.32;;
56477;SDS011;42382;53.210;5.772;2023-04-03T13:48:43;2.38;;;0.20;;
56477;SDS011;42382;53.210;5.772;2023-04-03T13:53:53;1.75;;;0.30;;
56477;SDS011;42382;53.210;5.772;2023-04-03T15:34:48;2.17;;;0.40;;
56477;SDS011;42382;53.210;5.772;2023-04-03T15:37:14;3.17;;;0.70;;
56477;SDS011;42382;53.210;5.772;2023-04-03T15:39:40;3.03;;;0.70;;
56477;SDS011;42382;53.210;5.772;2023-04-03T15:42:05;3.10;;;0.40;;
56477;SDS011;42382;53.210;5.772;2023-04-03T15:44:32;2.67;;;0.40;;
56477;SDS011;42382;53.210;5.772;2023-04-03T15:46:58;3.17;;;0.50;;
56477;SDS011;42382;53.210;5.772;2023-04-03T15:49:24;2.30;;;0.30;;
56477;SDS011;42382;53.210;5.772;2023-04-03T15:51:51;3.55;;;0.32;;
56477;SDS011;42382;53.210;5.772;2023-04-03T15:54:17;3.47;;;0.65;;
56477;SDS011;42382;53.210;5.772;2023-04-03T15:59:08;2.17;;;0.40;;
56477;SDS011;42382;53.210;5.772;2023-04-03T16:01:34;1.65;;;0.50;;
56477;SDS011;42382;53.210;5.772;2023-04-03T16:04:01;1.17;;;0.35;;
56477;SDS011;42382;53.210;5.772;2023-04-03T16:06:28;2.10;;;0.30;;
56477;SDS011;42382;53.210;5.772;2023-04-03T16:08:55;1.80;;;0.43;;
56477;SDS011;42382;53.210;5.772;2023-04-03T16:11:23;1.85;;;0.20;;
56477;SDS011;42382;53.210;5.772;2023-04-03T16:13:49;1.95;;;0.22;;
56477;SDS011;42382;53.210;5.772;2023-04-03T16:16:15;2.47;;;0.17;;
56477;SDS011;42382;53.210;5.772;2023-04-03T16:18:40;2.65;;;0.20;;
56477;SDS011;42382;53.210;5.772;2023-04-03T16:21:06;0.80;;;0.10;;
56477;SDS011;42382;53.210;5.772;2023-04-03T16:23:33;2.88;;;0.32;;
56477;SDS011;42382;53.210;5.772;2023-04-03T16:25:59;4.07;;;0.17;;
56477;SDS011;42382;53.210;5.772;2023-04-03T16:28:25;2.30;;;0.40;;
56477;SDS011;42382;53.210;5.772;2023-04-03T16:30:51;1.38;;;0.20;;
56477;SDS011;42382;53.210;5.772;2023-04-03T16:33:17;1.38;;;0.13;;
56477;SDS011;42382;53.210;5.772;2023-04-03T16:35:46;1.27;;;0.10;;
56477;SDS011;42382;53.210;5.772;2023-04-03T16:38:13;1.00;;;0.10;;
56477;SDS011;42382;53.210;5.772;2023-04-03T16:40:39;1.02;;;0.32;;
56477;SDS011;42382;53.210;5.772;2023-04-03T16:43:05;0.88;;;0.10;;
56477;SDS011;42382;53.210;5.772;2023-04-03T16:45:31;0.93;;;0.10;;
56477;SDS011;42382;53.210;5.772;2023-04-03T16:47:56;1.27;;;0.20;;
56477;SDS011;42382;53.210;5.772;2023-04-03T16:50:22;2.80;;;0.20;;
56477;SDS011;42382;53.210;5.772;2023-04-03T17:07:22;1.77;;;0.43;;
56477;SDS011;42382;53.210;5.772;2023-04-03T17:09:49;3.35;;;0.20;;
56477;SDS011;42382;53.210;5.772;2023-04-03T17:12:16;1.15;;;0.22;;
56477;SDS011;42382;53.210;5.772;2023-04-03T17:14:42;2.65;;;0.10;;
56477;SDS011;42382;53.210;5.772;2023-04-03T17:17:08;1.17;;;0.10;;
56477;SDS011;42382;53.210;5.772;2023-04-03T17:19:34;2.70;;;0.40;;
56477;SDS011;42382;53.210;5.772;2023-04-03T17:22:02;2.05;;;0.20;;
56477;SDS011;42382;53.210;5.772;2023-04-03T17:24:28;3.47;;;0.30;;
56477;SDS011;42382;53.210;5.772;2023-04-03T17:26:53;2.75;;;0.57;;
56477;SDS011;42382;53.210;5.772;2023-04-03T17:29:19;2.75;;;0.30;;
56477;SDS011;42382;53.210;5.772;2023-04-03T17:31:45;4.40;;;0.95;;
56477;SDS011;42382;53.210;5.772;2023-04-03T17:34:11;2.25;;;0.22;;
56477;SDS011;42382;53.210;5.772;2023-04-03T17:36:37;4.53;;;0.50;;
56477;SDS011;42382;53.210;5.772;2023-04-03T17:39:03;2.22;;;0.43;;
56477;SDS011;42382;53.210;5.772;2023-04-03T17:41:29;2.92;;;0.30;;
56477;SDS011;42382;53.210;5.772;2023-04-03T17:43:55;3.10;;;0.57;;
56477;SDS011;42382;53.210;5.772;2023-04-03T17:46:22;1.50;;;0.20;;
56477;SDS011;42382;53.210;5.772;2023-04-03T17:48:48;4.00;;;0.43;;
56477;SDS011;42382;53.210;5.772;2023-04-03T17:51:16;1.33;;;0.28;;
56477;SDS011;42382;53.210;5.772;2023-04-03T17:53:46;3.30;;;0.32;;
56477;SDS011;42382;53.210;5.772;2023-04-03T17:56:13;5.13;;;0.40;;
56477;SDS011;42382;53.210;5.772;2023-04-03T17:58:41;1.90;;;0.20;;
56477;SDS011;42382;53.210;5.772;2023-04-03T18:01:09;2.58;;;0.20;;
56477;SDS011;42382;53.210;5.772;2023-04-03T18:03:42;1.48;;;0.30;;
56477;SDS011;42382;53.210;5.772;2023-04-03T18:06:09;1.45;;;0.25;;
56477;SDS011;42382;53.210;5.772;2023-04-03T18:08:39;3.80;;;0.40;;
56477;SDS011;42382;53.210;5.772;2023-04-03T18:11:07;4.75;;;0.20;;
56477;SDS011;42382;53.210;5.772;2023-04-03T18:13:34;2.05;;;0.30;;
56477;SDS011;42382;53.210;5.772;2023-04-03T18:16:06;2.33;;;0.30;;
56477;SDS011;42382;53.210;5.772;2023-04-03T18:18:33;4.60;;;0.47;;
56477;SDS011;42382;53.210;5.772;2023-04-03T18:20:59;1.52;;;0.20;;
56477;SDS011;42382;53.210;5.772;2023-04-03T18:23:26;2.85;;;0.20;;
56477;SDS011;42382;53.210;5.772;2023-04-03T18:25:55;3.42;;;0.30;;
56477;SDS011;42382;53.210;5.772;2023-04-03T18:28:21;3.65;;;0.40;;
56477;SDS011;42382;53.210;5.772;2023-04-03T18:30:47;2.05;;;0.38;;
56477;SDS011;42382;53.210;5.772;2023-04-03T18:40:30;1.40;;;0.20;;
56477;SDS011;42382;53.210;5.772;2023-04-03T18:42:58;2.85;;;0.38;;
56477;SDS011;42382;53.210;5.772;2023-04-03T18:45:25;4.50;;;0.95;;
56477;SDS011;42382;53.210;5.772;2023-04-03T18:47:51;5.95;;;0.60;;
56477;SDS011;42382;53.210;5.772;2023-04-03T18:50:18;3.00;;;0.40;;
56477;SDS011;42382;53.210;5.772;2023-04-03T18:52:44;6.25;;;1.60;;
56477;SDS011;42382;53.210;5.772;2023-04-03T18:55:14;6.57;;;0.60;;
56477;SDS011;42382;53.210;5.772;2023-04-03T18:57:44;3.95;;;0.50;;
56477;SDS011;42382;53.210;5.772;2023-04-03T19:00:11;5.35;;;0.73;;
56477;SDS011;42382;53.210;5.772;2023-04-03T19:02:38;2.45;;;0.30;;
56477;SDS011;42382;53.210;5.772;2023-04-03T19:05:05;3.83;;;0.40;;
56477;SDS011;42382;53.210;5.772;2023-04-03T19:07:31;2.60;;;0.90;;
56477;SDS011;42382;53.210;5.772;2023-04-03T19:09:57;3.47;;;1.38;;
56477;SDS011;42382;53.210;5.772;2023-04-03T19:12:24;2.80;;;0.65;;
56477;SDS011;42382;53.210;5.772;2023-04-03T19:14:50;5.28;;;0.98;;
